createdAt,value
2023-03-27T00:01:44.775Z,101949.34
2023-03-27T00:04:26.424Z,101940.91
2023-03-27T00:07:09.352Z,101938.38
2023-03-27T00:10:02.965Z,101936.28
2023-03-27T00:12:50.048Z,101936.84
2023-03-27T00:15:29.514Z,101932.94
2023-03-27T00:17:59.546Z,101931.25
2023-03-27T00:20:33.980Z,101930.16
2023-03-27T00:23:05.873Z,101941.69
2023-03-27T00:25:36.283Z,101940.53
2023-03-27T00:28:21.409Z,101933.47
2023-03-27T00:31:24.485Z,101939.72
2023-03-27T00:33:56.937Z,101940.88
2023-03-27T00:37:11.154Z,101945.53
2023-03-27T00:39:50.883Z,101936.94
2023-03-27T00:42:24.504Z,101939.97
2023-03-27T00:45:33.577Z,101938.56
2023-03-27T00:48:12.876Z,101945.16
2023-03-27T00:51:10.335Z,101937.88
2023-03-27T00:53:58.133Z,101944.22
2023-03-27T00:56:59.836Z,101951.19
2023-03-27T01:00:26.080Z,101943.59
2023-03-27T01:02:53.982Z,101956.41
2023-03-27T01:05:28.304Z,101959.97
2023-03-27T01:08:12.644Z,101956.72
2023-03-27T01:11:12.030Z,101956.50
2023-03-27T01:13:42.751Z,101964.38
2023-03-27T01:16:42.267Z,101960.19
2023-03-27T01:19:59.929Z,101960.09
2023-03-27T01:23:00.537Z,101962.97
2023-03-27T01:26:35.296Z,101963.44
2023-03-27T01:29:22.234Z,101964.59
2023-03-27T01:32:27.255Z,101971.06
2023-03-27T01:35:57.807Z,101966.44
2023-03-27T01:39:18.910Z,101961.56
2023-03-27T01:47:22.270Z,101972.19
2023-03-27T01:50:36.655Z,101979.44
2023-03-27T01:53:31.804Z,101981.94
2023-03-27T01:56:36.558Z,101987.81
2023-03-27T01:59:19.240Z,101990.72
2023-03-27T02:02:33.949Z,101995.88
2023-03-27T02:05:41.400Z,102003.44
2023-03-27T02:08:22.682Z,102011.16
2023-03-27T02:11:12.395Z,102018.13
2023-03-27T02:14:08.477Z,102015.03
2023-03-27T02:17:00.969Z,102016.91
2023-03-27T02:19:40.004Z,102010.78
2023-03-27T02:22:09.865Z,102013.28
2023-03-27T02:25:41.081Z,102012.56
2023-03-27T02:28:54.824Z,102014.34
2023-03-27T02:32:11.793Z,102007.94
2023-03-27T02:35:22.206Z,102008.16
2023-03-27T02:37:59.659Z,102010.28
2023-03-27T02:41:10.549Z,102016.41
2023-03-27T02:43:59.594Z,102016.72
2023-03-27T02:46:58.544Z,102018.00
2023-03-27T02:49:53.892Z,102027.72
2023-03-27T02:53:16.060Z,102026.28
2023-03-27T02:55:52.359Z,102035.38
2023-03-27T02:58:35.010Z,102035.69
2023-03-27T03:01:54.216Z,102032.44
2023-03-27T03:08:20.441Z,102045.38
2023-03-27T03:10:50.369Z,102037.75
2023-03-27T03:13:55.420Z,102049.09
2023-03-27T03:16:56.403Z,102050.22
2023-03-27T03:19:33.998Z,102048.59
2023-03-27T03:22:17.737Z,102053.63
2023-03-27T03:25:07.416Z,102049.56
2023-03-27T03:27:58.859Z,102055.03
2023-03-27T03:30:32.850Z,102058.00
2023-03-27T03:33:13.389Z,102057.44
2023-03-27T03:35:49.336Z,102062.19
2023-03-27T03:38:37.862Z,102065.34
2023-03-27T03:41:15.042Z,102074.44
2023-03-27T03:43:47.320Z,102071.53
2023-03-27T03:46:54.375Z,102073.50
2023-03-27T03:49:46.857Z,102073.84
2023-03-27T03:52:34.970Z,102079.81
2023-03-27T03:55:07.840Z,102082.09
2023-03-27T03:57:48.137Z,102077.56
2023-03-27T04:00:33.493Z,102078.72
2023-03-27T04:03:11.989Z,102073.41
2023-03-27T04:05:44.972Z,102081.09
2023-03-27T04:08:14.232Z,102084.13
2023-03-27T04:10:49.875Z,102086.88
2023-03-27T04:13:38.451Z,102085.56
2023-03-27T04:16:21.689Z,102092.75
2023-03-27T04:19:04.629Z,102085.88
2023-03-27T04:21:37.292Z,102087.06
2023-03-27T04:24:09.377Z,102087.50
2023-03-27T04:27:07.022Z,102095.47
2023-03-27T04:30:00.775Z,102095.31
2023-03-27T04:32:50.165Z,102091.13
2023-03-27T04:36:06.959Z,102087.59
2023-03-27T04:38:55.864Z,102099.25
2023-03-27T04:41:25.269Z,102093.00
2023-03-27T04:43:58.612Z,102090.13
2023-03-27T04:46:41.206Z,102098.75
2023-03-27T04:49:13.725Z,102095.84
2023-03-27T04:52:03.735Z,102113.56
2023-03-27T04:54:34.260Z,102117.50
2023-03-27T04:57:07.677Z,102118.84
2023-03-27T04:59:39.949Z,102116.13
2023-03-27T05:02:45.595Z,102115.97
2023-03-27T05:05:20.438Z,102123.72
2023-03-27T05:08:04.373Z,102120.03
2023-03-27T05:10:34.079Z,102117.44
2023-03-27T05:13:06.399Z,102115.47
2023-03-27T05:15:37.087Z,102115.22
2023-03-27T05:18:08.467Z,102110.56
2023-03-27T05:20:40.557Z,102113.69
2023-03-27T05:23:13.593Z,102104.31
2023-03-27T05:26:00.094Z,102109.19
2023-03-27T05:28:46.326Z,102105.72
2023-03-27T05:31:16.463Z,102108.94
2023-03-27T05:34:15.166Z,102111.75
2023-03-27T05:36:48.048Z,102106.34
2023-03-27T05:39:17.814Z,102116.50
2023-03-27T05:41:49.232Z,102115.31
2023-03-27T05:44:30.044Z,102109.81
2023-03-27T05:47:02.060Z,102110.81
2023-03-27T05:49:34.152Z,102112.34
2023-03-27T05:52:13.190Z,102114.13
2023-03-27T05:54:44.545Z,102109.88
2023-03-27T05:57:14.049Z,102113.72
2023-03-27T05:59:43.748Z,102117.38
2023-03-27T06:02:26.997Z,102119.22
2023-03-27T06:05:01.338Z,102126.50
2023-03-27T06:07:34.098Z,102118.78
2023-03-27T06:10:13.698Z,102122.00
2023-03-27T06:13:06.012Z,102120.41
2023-03-27T06:15:44.162Z,102124.88
2023-03-27T06:18:31.878Z,102124.88
2023-03-27T06:21:05.694Z,102122.22
2023-03-27T06:23:35.084Z,102120.63
2023-03-27T06:26:11.755Z,102126.81
2023-03-27T06:28:41.061Z,102123.06
2023-03-27T06:31:13.043Z,102121.25
2023-03-27T06:33:50.064Z,102116.56
2023-03-27T06:36:39.637Z,102131.91
2023-03-27T06:39:15.352Z,102132.22
2023-03-27T06:41:50.778Z,102136.09
2023-03-27T06:44:30.080Z,102133.44
2023-03-27T06:47:23.179Z,102135.88
2023-03-27T06:50:24.032Z,102133.56
2023-03-27T06:52:56.150Z,102131.41
2023-03-27T06:55:40.776Z,102137.59
2023-03-27T06:58:14.463Z,102128.34
2023-03-27T07:00:45.029Z,102134.66
2023-03-27T07:03:34.166Z,102137.50
2023-03-27T07:06:23.498Z,102133.41
2023-03-27T07:09:01.202Z,102134.03
2023-03-27T07:11:32.203Z,102126.50
2023-03-27T07:14:12.312Z,102132.59
2023-03-27T07:16:44.453Z,102134.81
2023-03-27T07:19:14.934Z,102133.78
2023-03-27T07:21:47.800Z,102131.72
2023-03-27T07:24:17.426Z,102137.31
2023-03-27T07:26:46.666Z,102137.94
2023-03-27T07:29:22.794Z,102138.19
2023-03-27T07:31:58.748Z,102138.00
2023-03-27T07:34:40.576Z,102132.81
2023-03-27T07:37:39.803Z,102136.97
2023-03-27T07:40:43.421Z,102128.66
2023-03-27T07:43:47.940Z,102130.06
2023-03-27T07:46:17.902Z,102129.03
2023-03-27T07:48:47.020Z,102131.25
2023-03-27T07:51:19.410Z,102119.59
2023-03-27T07:53:50.384Z,102130.25
2023-03-27T07:56:26.884Z,102127.28
2023-03-27T07:59:28.944Z,102134.91
2023-03-27T08:02:03.884Z,102128.31
2023-03-27T08:04:34.051Z,102126.69
2023-03-27T08:07:10.060Z,102130.63
2023-03-27T08:09:39.926Z,102124.16
2023-03-27T08:12:10.912Z,102121.72
2023-03-27T08:14:48.760Z,102122.84
2023-03-27T08:17:35.099Z,102125.66
2023-03-27T08:20:10.070Z,102127.38
2023-03-27T08:22:48.108Z,102129.44
2023-03-27T08:25:37.338Z,102124.97
2023-03-27T08:28:10.217Z,102125.59
2023-03-27T08:30:42.951Z,102123.97
2023-03-27T08:33:12.442Z,102120.09
2023-03-27T08:35:42.292Z,102124.53
2023-03-27T08:38:23.771Z,102123.56
2023-03-27T08:41:20.771Z,102120.09
2023-03-27T08:44:05.523Z,102118.09
2023-03-27T08:46:40.099Z,102125.59
2023-03-27T08:49:18.228Z,102127.03
2023-03-27T08:52:11.025Z,102131.50
2023-03-27T08:54:45.633Z,102124.97
2023-03-27T08:57:22.526Z,102124.81
2023-03-27T09:00:00.325Z,102121.03
2023-03-27T09:02:49.609Z,102132.00
2023-03-27T09:05:25.303Z,102124.38
2023-03-27T09:08:24.876Z,102116.50
2023-03-27T09:11:11.801Z,102110.84
2023-03-27T09:13:53.245Z,102116.41
2023-03-27T09:16:36.766Z,102115.28
2023-03-27T09:19:10.323Z,102111.66
2023-03-27T09:22:15.109Z,102115.53
2023-03-27T09:25:16.552Z,102121.13
2023-03-27T09:28:05.576Z,102119.78
2023-03-27T09:30:46.770Z,102111.53
2023-03-27T09:33:28.857Z,102114.50
2023-03-27T09:36:00.639Z,102108.22
2023-03-27T09:38:51.996Z,102122.56
2023-03-27T09:41:34.867Z,102110.34
2023-03-27T09:44:24.171Z,102110.91
2023-03-27T09:47:10.373Z,102110.66
2023-03-27T09:49:46.335Z,102114.28
2023-03-27T09:52:39.018Z,102117.69
2023-03-27T09:55:32.523Z,102110.03
2023-03-27T09:58:17.499Z,102108.16
2023-03-27T10:00:48.232Z,102108.34
2023-03-27T10:03:20.171Z,102112.81
2023-03-27T10:06:08.727Z,102116.69
2023-03-27T10:08:53.893Z,102102.69
2023-03-27T10:11:33.723Z,102098.16
2023-03-27T10:14:17.788Z,102107.84
2023-03-27T10:16:48.577Z,102102.94
2023-03-27T10:19:36.573Z,102098.63
2023-03-27T10:22:28.636Z,102101.31
2023-03-27T10:25:05.185Z,102098.44
2023-03-27T10:27:54.544Z,102102.34
2023-03-27T10:30:43.233Z,102090.28
2023-03-27T10:33:37.410Z,102091.72
2023-03-27T10:36:25.225Z,102081.13
2023-03-27T10:39:10.587Z,102093.44
2023-03-27T10:41:52.338Z,102093.22
2023-03-27T10:44:29.386Z,102091.19
2023-03-27T10:47:00.080Z,102095.69
2023-03-27T10:49:49.926Z,102090.09
2023-03-27T10:52:47.107Z,102083.53
2023-03-27T10:55:29.714Z,102088.06
2023-03-27T10:58:07.374Z,102084.03
2023-03-27T11:00:44.229Z,102090.13
2023-03-27T11:03:27.139Z,102089.38
2023-03-27T11:06:06.425Z,102091.31
2023-03-27T11:09:06.452Z,102092.09
2023-03-27T11:12:05.189Z,102083.44
2023-03-27T11:14:40.571Z,102090.69
2023-03-27T11:17:19.440Z,102075.59
2023-03-27T11:20:17.048Z,102080.50
2023-03-27T11:23:06.403Z,102080.50
2023-03-27T11:26:03.565Z,102079.91
2023-03-27T11:28:47.932Z,102077.00
2023-03-27T11:31:49.182Z,102066.00
2023-03-27T11:34:41.801Z,102077.31
2023-03-27T11:37:42.448Z,102068.78
2023-03-27T11:40:25.629Z,102066.69
2023-03-27T11:43:02.269Z,102065.03
2023-03-27T11:45:47.398Z,102059.75
2023-03-27T11:49:04.322Z,102066.16
2023-03-27T11:51:39.555Z,102056.69
2023-03-27T11:54:18.793Z,102052.16
2023-03-27T11:56:55.381Z,102058.34
2023-03-27T12:00:02.877Z,102057.38
2023-03-27T12:02:44.248Z,102051.44
2023-03-27T12:05:53.316Z,102049.09
2023-03-27T12:08:32.029Z,102039.47
2023-03-27T12:11:04.647Z,102040.97
2023-03-27T12:13:42.286Z,102039.38
2023-03-27T12:16:49.397Z,102034.16
2023-03-27T12:19:31.087Z,102035.97
2023-03-27T12:22:32.355Z,102028.00
2023-03-27T12:25:24.237Z,102027.94
2023-03-27T12:28:33.880Z,102022.19
2023-03-27T12:31:38.045Z,102016.06
2023-03-27T12:34:19.281Z,102016.63
2023-03-27T12:36:49.356Z,102015.69
2023-03-27T12:39:27.359Z,102018.97
2023-03-27T12:42:03.671Z,102011.97
2023-03-27T12:45:07.483Z,102017.69
2023-03-27T12:47:36.598Z,102008.72
2023-03-27T12:50:27.256Z,101999.25
2023-03-27T12:52:58.524Z,102010.81
2023-03-27T12:55:37.945Z,102008.16
2023-03-27T12:58:41.214Z,102008.25
2023-03-27T13:01:52.206Z,102013.38
2023-03-27T13:04:50.090Z,102000.50
2023-03-27T13:07:54.634Z,101993.25
2023-03-27T13:10:45.211Z,101991.19
2023-03-27T13:13:46.055Z,101999.22
2023-03-27T13:16:25.639Z,101981.31
2023-03-27T13:19:14.686Z,101993.41
2023-03-27T13:22:19.778Z,101986.53
2023-03-27T13:25:16.065Z,101988.06
2023-03-27T13:28:07.344Z,101985.09
2023-03-27T13:30:57.207Z,101985.03
2023-03-27T13:33:48.441Z,101977.47
2023-03-27T13:36:32.371Z,101975.03
2023-03-27T13:39:06.689Z,101982.72
2023-03-27T13:41:45.420Z,101981.75
2023-03-27T13:44:40.951Z,101976.09
2023-03-27T13:47:10.403Z,101971.31
2023-03-27T13:49:50.632Z,101971.31
2023-03-27T13:52:35.586Z,101967.97
2023-03-27T13:55:18.410Z,101965.72
2023-03-27T13:58:33.528Z,101962.34
2023-03-27T14:01:19.580Z,101956.88
2023-03-27T14:04:14.424Z,101956.41
2023-03-27T14:07:08.623Z,101953.53
2023-03-27T14:10:10.948Z,101942.38
2023-03-27T14:13:04.191Z,101943.13
2023-03-27T14:16:20.363Z,101940.13
2023-03-27T14:19:15.257Z,101939.91
2023-03-27T14:22:00.004Z,101940.00
2023-03-27T14:24:47.697Z,101935.97
2023-03-27T14:27:55.009Z,101939.00
2023-03-27T14:30:30.305Z,101939.47
2023-03-27T14:33:25.876Z,101942.84
2023-03-27T14:36:04.686Z,101938.78
2023-03-27T14:38:38.174Z,101938.22
2023-03-27T14:41:21.402Z,101940.28
2023-03-27T14:44:04.877Z,101936.41
2023-03-27T14:46:45.892Z,101947.72
2023-03-27T14:49:24.799Z,101942.06
2023-03-27T14:52:05.144Z,101940.94
2023-03-27T14:54:58.451Z,101937.59
2023-03-27T14:57:35.353Z,101935.75
2023-03-27T15:00:08.734Z,101931.63
2023-03-27T15:02:47.463Z,101927.50
2023-03-27T15:05:25.981Z,101926.78
2023-03-27T15:08:02.621Z,101928.31
2023-03-27T15:10:58.249Z,101928.09
2023-03-27T15:13:42.960Z,101932.03
2023-03-27T15:16:30.859Z,101926.09
2023-03-27T15:19:15.053Z,101929.72
2023-03-27T15:21:59.799Z,101921.56
2023-03-27T15:25:08.375Z,101923.28
2023-03-27T15:27:53.590Z,101921.09
2023-03-27T15:30:34.964Z,101924.72
2023-03-27T15:33:06.655Z,101921.56
2023-03-27T15:35:45.937Z,101910.06
2023-03-27T15:38:17.955Z,101911.03
2023-03-27T15:40:47.446Z,101915.81
2023-03-27T15:43:17.167Z,101911.72
2023-03-27T15:46:00.057Z,101902.72
2023-03-27T15:48:38.026Z,101902.47
2023-03-27T15:51:11.354Z,101910.66
2023-03-27T15:53:48.705Z,101904.50
2023-03-27T15:56:22.677Z,101898.25
2023-03-27T15:59:08.217Z,101891.09
2023-03-27T16:01:52.867Z,101887.31
2023-03-27T16:04:27.338Z,101890.34
2023-03-27T16:07:10.370Z,101878.53
2023-03-27T16:10:06.031Z,101873.25
2023-03-27T16:12:50.910Z,101870.69
2023-03-27T16:15:31.873Z,101874.34
2023-03-27T16:18:05.527Z,101875.38
2023-03-27T16:20:39.919Z,101868.09
2023-03-27T16:23:09.528Z,101873.41
2023-03-27T16:25:39.921Z,101867.13
2023-03-27T16:28:10.888Z,101868.38
2023-03-27T16:30:42.428Z,101861.16
2023-03-27T16:33:17.809Z,101862.00
2023-03-27T16:35:47.235Z,101863.38
2023-03-27T16:38:17.502Z,101856.44
2023-03-27T16:40:47.278Z,101854.03
2023-03-27T16:43:16.382Z,101864.97
2023-03-27T16:45:46.904Z,101859.09
2023-03-27T16:48:21.029Z,101851.69
2023-03-27T16:50:50.134Z,101851.38
2023-03-27T16:53:19.079Z,101851.59
2023-03-27T16:55:48.078Z,101855.81
2023-03-27T16:58:17.752Z,101850.97
2023-03-27T17:00:46.757Z,101846.88
2023-03-27T17:03:18.884Z,101848.94
2023-03-27T17:05:48.298Z,101844.34
2023-03-27T17:08:19.498Z,101839.25
2023-03-27T17:10:48.639Z,101847.72
2023-03-27T17:13:18.165Z,101844.13
2023-03-27T17:15:52.151Z,101839.38
2023-03-27T17:18:21.609Z,101839.00
2023-03-27T17:20:50.518Z,101840.50
2023-03-27T17:23:20.358Z,101831.56
2023-03-27T17:25:52.585Z,101830.78
2023-03-27T17:28:21.861Z,101835.34
2023-03-27T17:31:03.168Z,101837.47
2023-03-27T17:33:34.072Z,101822.03
2023-03-27T17:36:09.447Z,101824.94
2023-03-27T17:38:38.979Z,101823.06
2023-03-27T17:41:13.615Z,101825.47
2023-03-27T17:43:42.974Z,101827.59
2023-03-27T17:46:14.724Z,101823.84
2023-03-27T17:48:43.922Z,101818.81
2023-03-27T17:51:13.260Z,101820.56
2023-03-27T17:53:44.918Z,101818.25
2023-03-27T17:56:13.968Z,101818.88
2023-03-27T17:58:44.741Z,101817.56
2023-03-27T18:01:18.653Z,101815.22
2023-03-27T18:03:48.649Z,101813.22
2023-03-27T18:06:18.992Z,101805.78
2023-03-27T18:08:48.674Z,101813.13
2023-03-27T18:11:20.014Z,101809.13
2023-03-27T18:13:53.693Z,101810.75
2023-03-27T18:16:23.800Z,101811.94
2023-03-27T18:18:55.772Z,101809.25
2023-03-27T18:21:25.282Z,101816.50
2023-03-27T18:23:56.866Z,101810.81
2023-03-27T18:26:46.110Z,101804.25
2023-03-27T18:29:21.954Z,101800.47
2023-03-27T18:31:51.600Z,101789.69
2023-03-27T18:34:20.753Z,101784.91
2023-03-27T18:36:52.623Z,101781.50
2023-03-27T18:39:21.928Z,101776.88
2023-03-27T18:41:52.282Z,101783.34
2023-03-27T18:44:23.954Z,101782.88
2023-03-27T18:46:53.304Z,101767.94
2023-03-27T18:49:25.173Z,101771.00
2023-03-27T18:51:54.850Z,101762.34
2023-03-27T18:54:24.110Z,101749.91
2023-03-27T18:57:01.521Z,101745.94
2023-03-27T18:59:30.534Z,101742.88
2023-03-27T19:01:59.497Z,101744.66
2023-03-27T19:04:31.684Z,101739.47
2023-03-27T19:07:01.099Z,101735.84
2023-03-27T19:09:40.918Z,101739.03
2023-03-27T19:12:11.934Z,101743.31
2023-03-27T19:15:06.598Z,101727.97
2023-03-27T19:18:02.079Z,101725.09
2023-03-27T19:20:54.073Z,101719.78
2023-03-27T19:23:33.411Z,101712.94
2023-03-27T19:26:11.897Z,101713.94
2023-03-27T19:28:48.297Z,101704.34
2023-03-27T19:31:20.020Z,101699.50
2023-03-27T19:33:49.204Z,101696.47
2023-03-27T19:36:25.817Z,101692.78
2023-03-27T19:38:55.912Z,101693.78
2023-03-27T19:41:27.877Z,101685.31
2023-03-27T19:44:00.533Z,101672.47
2023-03-27T19:46:30.122Z,101678.34
2023-03-27T19:49:04.683Z,101665.91
2023-03-27T19:51:54.064Z,101657.88
2023-03-27T19:54:23.420Z,101650.22
2023-03-27T19:56:55.932Z,101643.19
2023-03-27T19:59:30.905Z,101637.34
2023-03-27T20:02:01.236Z,101634.94
2023-03-27T20:04:30.242Z,101628.47
2023-03-27T20:07:04.284Z,101617.75
2023-03-27T20:09:33.818Z,101608.44
2023-03-27T20:12:02.999Z,101619.31
2023-03-27T20:14:32.118Z,101611.34
2023-03-27T20:17:01.071Z,101609.69
2023-03-27T20:19:31.467Z,101596.78
2023-03-27T20:22:08.483Z,101591.88
2023-03-27T20:24:37.790Z,101588.69
2023-03-27T20:27:09.905Z,101580.47
2023-03-27T20:29:41.816Z,101579.00
2023-03-27T20:32:17.804Z,101572.16
2023-03-27T20:34:49.567Z,101570.34
2023-03-27T20:37:41.339Z,101563.38
2023-03-27T20:40:16.966Z,101558.25
2023-03-27T20:42:49.271Z,101548.19
2023-03-27T20:45:23.161Z,101545.38
2023-03-27T20:47:55.322Z,101539.34
2023-03-27T20:50:24.838Z,101543.22
2023-03-27T20:53:11.950Z,101525.69
2023-03-27T20:55:49.691Z,101531.75
2023-03-27T20:58:25.524Z,101516.88
2023-03-27T21:00:59.328Z,101510.63
2023-03-27T21:03:32.903Z,101500.50
2023-03-27T21:06:09.770Z,101482.31
2023-03-27T21:08:40.015Z,101487.44
2023-03-27T21:11:13.038Z,101490.25
2023-03-27T21:13:42.574Z,101491.44
2023-03-27T21:16:11.794Z,101480.28
2023-03-27T21:18:44.213Z,101469.44
2023-03-27T21:21:13.458Z,101458.69
2023-03-27T21:23:43.478Z,101457.69
2023-03-27T21:26:22.657Z,101465.91
2023-03-27T21:29:22.062Z,101452.31
2023-03-27T21:32:07.332Z,101451.16
2023-03-27T21:34:45.867Z,101442.34
2023-03-27T21:37:43.385Z,101442.75
2023-03-27T21:40:38.727Z,101419.53
2023-03-27T21:44:02.144Z,101425.84
2023-03-27T21:46:54.143Z,101428.28
2023-03-27T21:49:29.611Z,101427.47
2023-03-27T21:52:13.228Z,101421.56
2023-03-27T21:55:02.974Z,101426.00
2023-03-27T21:57:50.702Z,101421.16
2023-03-27T22:00:22.644Z,101401.75
2023-03-27T22:02:52.034Z,101403.78
2023-03-27T22:05:22.725Z,101397.34
2023-03-27T22:07:52.271Z,101407.66
2023-03-27T22:10:24.335Z,101396.97
2023-03-27T22:12:56.355Z,101402.16
2023-03-27T22:15:34.652Z,101384.28
2023-03-27T22:18:44.415Z,101388.31
2023-03-27T22:21:22.370Z,101383.34
2023-03-27T22:24:08.474Z,101370.56
2023-03-27T22:26:40.830Z,101377.03
2023-03-27T22:29:10.137Z,101372.53
2023-03-27T22:31:42.710Z,101362.69
2023-03-27T22:34:12.717Z,101358.13
2023-03-27T22:36:44.020Z,101359.06
2023-03-27T22:39:15.188Z,101345.03
2023-03-27T22:41:47.072Z,101353.31
2023-03-27T22:47:46.499Z,101338.56
2023-03-27T22:51:00.392Z,101325.00
2023-03-27T22:53:36.292Z,101326.38
2023-03-27T22:56:29.905Z,101335.13
2023-03-27T22:59:01.721Z,101313.72
2023-03-27T23:01:31.354Z,101323.66
2023-03-27T23:04:10.447Z,101316.09
2023-03-27T23:09:23.376Z,101299.66
2023-03-27T23:12:19.905Z,101304.31
2023-03-27T23:14:53.233Z,101303.69
2023-03-27T23:17:23.626Z,101288.25
2023-03-27T23:20:02.606Z,101288.19
2023-03-27T23:22:54.476Z,101283.47
2023-03-27T23:25:24.027Z,101285.78
2023-03-27T23:28:20.435Z,101282.19
2023-03-27T23:31:35.558Z,101290.81
2023-03-27T23:34:34.638Z,101276.41
2023-03-27T23:37:07.107Z,101272.94
2023-03-27T23:39:41.990Z,101274.19
2023-03-27T23:42:21.591Z,101273.34
2023-03-27T23:44:50.628Z,101266.47
2023-03-27T23:47:19.765Z,101257.59
2023-03-27T23:49:51.898Z,101259.44
2023-03-27T23:52:29.389Z,101251.78
2023-03-27T23:54:58.677Z,101249.59
2023-03-27T23:57:27.735Z,101249.19
